sensor_id;sensor_type;location;lat;lon;timestamp;P1;durP1;ratioP1;P2;durP2;ratioP2
9986;SDS011;5033;46.310;11.214;2023-02-28T00:00:11;5.40;;;4.93;;
9986;SDS011;5033;46.310;11.214;2023-02-28T00:02:40;5.38;;;4.97;;
9986;SDS011;5033;46.310;11.214;2023-02-28T00:05:09;5.15;;;4.75;;
9986;SDS011;5033;46.310;11.214;2023-02-28T00:07:38;5.65;;;5.25;;
9986;SDS011;5033;46.310;11.214;2023-02-28T00:10:07;5.28;;;4.88;;
9986;SDS011;5033;46.310;11.214;2023-02-28T00:12:37;5.50;;;5.03;;
9986;SDS011;5033;46.310;11.214;2023-02-28T00:15:05;5.13;;;4.70;;
9986;SDS011;5033;46.310;11.214;2023-02-28T00:17:33;5.32;;;4.90;;
9986;SDS011;5033;46.310;11.214;2023-02-28T00:20:01;5.07;;;4.72;;
9986;SDS011;5033;46.310;11.214;2023-02-28T00:22:37;5.70;;;5.20;;
9986;SDS011;5033;46.310;11.214;2023-02-28T00:25:08;5.38;;;4.97;;
9986;SDS011;5033;46.310;11.214;2023-02-28T00:27:36;4.75;;;4.32;;
9986;SDS011;5033;46.310;11.214;2023-02-28T00:30:05;5.18;;;4.78;;
9986;SDS011;5033;46.310;11.214;2023-02-28T00:32:36;5.28;;;4.88;;
9986;SDS011;5033;46.310;11.214;2023-02-28T00:35:03;5.22;;;4.82;;
9986;SDS011;5033;46.310;11.214;2023-02-28T00:37:31;5.53;;;5.07;;
9986;SDS011;5033;46.310;11.214;2023-02-28T00:39:59;5.15;;;4.75;;
9986;SDS011;5033;46.310;11.214;2023-02-28T00:42:31;5.38;;;4.90;;
9986;SDS011;5033;46.310;11.214;2023-02-28T00:44:59;6.00;;;5.50;;
9986;SDS011;5033;46.310;11.214;2023-02-28T00:47:26;6.05;;;5.60;;
9986;SDS011;5033;46.310;11.214;2023-02-28T00:49:53;5.90;;;5.40;;
9986;SDS011;5033;46.310;11.214;2023-02-28T00:52:20;4.85;;;4.47;;
9986;SDS011;5033;46.310;11.214;2023-02-28T00:54:47;5.55;;;5.05;;
9986;SDS011;5033;46.310;11.214;2023-02-28T00:57:14;5.20;;;4.80;;
9986;SDS011;5033;46.310;11.214;2023-02-28T00:59:43;5.82;;;5.43;;
9986;SDS011;5033;46.310;11.214;2023-02-28T01:02:10;6.30;;;5.78;;
9986;SDS011;5033;46.310;11.214;2023-02-28T01:04:39;6.13;;;5.63;;
9986;SDS011;5033;46.310;11.214;2023-02-28T01:07:06;5.35;;;4.95;;
9986;SDS011;5033;46.310;11.214;2023-02-28T01:09:35;6.18;;;5.68;;
9986;SDS011;5033;46.310;11.214;2023-02-28T01:12:02;6.03;;;5.53;;
9986;SDS011;5033;46.310;11.214;2023-02-28T01:14:30;6.43;;;5.93;;
9986;SDS011;5033;46.310;11.214;2023-02-28T01:16:58;6.10;;;5.60;;
9986;SDS011;5033;46.310;11.214;2023-02-28T01:19:26;6.53;;;6.03;;
9986;SDS011;5033;46.310;11.214;2023-02-28T01:21:53;6.35;;;5.85;;
9986;SDS011;5033;46.310;11.214;2023-02-28T01:24:20;6.45;;;5.95;;
9986;SDS011;5033;46.310;11.214;2023-02-28T01:26:47;6.38;;;5.88;;
9986;SDS011;5033;46.310;11.214;2023-02-28T01:29:15;5.72;;;5.18;;
9986;SDS011;5033;46.310;11.214;2023-02-28T01:31:42;7.88;;;7.07;;
9986;SDS011;5033;46.310;11.214;2023-02-28T01:34:11;6.15;;;5.65;;
9986;SDS011;5033;46.310;11.214;2023-02-28T01:36:38;6.72;;;5.82;;
9986;SDS011;5033;46.310;11.214;2023-02-28T01:39:05;6.22;;;5.70;;
9986;SDS011;5033;46.310;11.214;2023-02-28T01:41:33;6.75;;;6.18;;
9986;SDS011;5033;46.310;11.214;2023-02-28T01:44:02;6.25;;;5.68;;
9986;SDS011;5033;46.310;11.214;2023-02-28T01:46:31;6.07;;;5.57;;
9986;SDS011;5033;46.310;11.214;2023-02-28T01:49:01;6.68;;;6.07;;
9986;SDS011;5033;46.310;11.214;2023-02-28T01:51:36;5.85;;;5.35;;
9986;SDS011;5033;46.310;11.214;2023-02-28T01:54:12;6.35;;;5.72;;
9986;SDS011;5033;46.310;11.214;2023-02-28T01:56:44;5.55;;;5.05;;
9986;SDS011;5033;46.310;11.214;2023-02-28T01:59:19;6.05;;;5.55;;
9986;SDS011;5033;46.310;11.214;2023-02-28T02:01:51;6.60;;;6.10;;
9986;SDS011;5033;46.310;11.214;2023-02-28T02:04:19;6.40;;;5.80;;
9986;SDS011;5033;46.310;11.214;2023-02-28T02:06:51;6.35;;;5.85;;
9986;SDS011;5033;46.310;11.214;2023-02-28T02:09:18;6.65;;;6.13;;
9986;SDS011;5033;46.310;11.214;2023-02-28T02:11:45;6.70;;;6.20;;
9986;SDS011;5033;46.310;11.214;2023-02-28T02:17:15;6.22;;;5.72;;
9986;SDS011;5033;46.310;11.214;2023-02-28T02:20:08;6.93;;;6.40;;
9986;SDS011;5033;46.310;11.214;2023-02-28T02:22:59;6.40;;;5.80;;
9986;SDS011;5033;46.310;11.214;2023-02-28T02:26:01;6.68;;;6.18;;
9986;SDS011;5033;46.310;11.214;2023-02-28T02:34:53;6.47;;;5.97;;
9986;SDS011;5033;46.310;11.214;2023-02-28T02:37:29;7.53;;;6.82;;
9986;SDS011;5033;46.310;11.214;2023-02-28T02:40:07;6.95;;;6.35;;
9986;SDS011;5033;46.310;11.214;2023-02-28T02:42:40;7.20;;;6.60;;
9986;SDS011;5033;46.310;11.214;2023-02-28T02:45:14;5.32;;;4.93;;
9986;SDS011;5033;46.310;11.214;2023-02-28T02:47:46;6.57;;;5.97;;
9986;SDS011;5033;46.310;11.214;2023-02-28T02:50:24;6.10;;;5.60;;
9986;SDS011;5033;46.310;11.214;2023-02-28T02:52:57;6.78;;;6.18;;
9986;SDS011;5033;46.310;11.214;2023-02-28T02:55:28;6.40;;;5.90;;
9986;SDS011;5033;46.310;11.214;2023-02-28T02:58:01;7.00;;;6.45;;
9986;SDS011;5033;46.310;11.214;2023-02-28T03:00:31;5.90;;;5.40;;
9986;SDS011;5033;46.310;11.214;2023-02-28T03:03:01;7.07;;;6.45;;
9986;SDS011;5033;46.310;11.214;2023-02-28T03:05:32;7.10;;;6.45;;
9986;SDS011;5033;46.310;11.214;2023-02-28T03:08:05;6.15;;;5.65;;
9986;SDS011;5033;46.310;11.214;2023-02-28T03:10:34;7.78;;;7.07;;
9986;SDS011;5033;46.310;11.214;2023-02-28T03:13:12;6.75;;;6.15;;
9986;SDS011;5033;46.310;11.214;2023-02-28T03:15:56;6.95;;;6.45;;
9986;SDS011;5033;46.310;11.214;2023-02-28T03:18:32;6.93;;;6.43;;
9986;SDS011;5033;46.310;11.214;2023-02-28T03:21:12;7.30;;;6.65;;
9986;SDS011;5033;46.310;11.214;2023-02-28T03:23:51;7.75;;;7.07;;
9986;SDS011;5033;46.310;11.214;2023-02-28T03:26:26;7.22;;;6.65;;
9986;SDS011;5033;46.310;11.214;2023-02-28T03:29:07;7.78;;;7.07;;
9986;SDS011;5033;46.310;11.214;2023-02-28T03:31:43;7.13;;;6.53;;
9986;SDS011;5033;46.310;11.214;2023-02-28T03:34:16;7.78;;;7.10;;
9986;SDS011;5033;46.310;11.214;2023-02-28T03:36:50;6.72;;;6.20;;
9986;SDS011;5033;46.310;11.214;2023-02-28T03:39:20;6.63;;;6.13;;
9986;SDS011;5033;46.310;11.214;2023-02-28T03:41:52;6.97;;;6.35;;
9986;SDS011;5033;46.310;11.214;2023-02-28T03:44:24;7.32;;;6.38;;
9986;SDS011;5033;46.310;11.214;2023-02-28T03:46:56;6.47;;;5.97;;
9986;SDS011;5033;46.310;11.214;2023-02-28T03:49:28;7.00;;;6.40;;
9986;SDS011;5033;46.310;11.214;2023-02-28T03:52:00;6.75;;;6.15;;
9986;SDS011;5033;46.310;11.214;2023-02-28T03:54:31;6.50;;;5.97;;
9986;SDS011;5033;46.310;11.214;2023-02-28T03:57:03;6.80;;;6.30;;
9986;SDS011;5033;46.310;11.214;2023-02-28T03:59:34;8.00;;;7.30;;
9986;SDS011;5033;46.310;11.214;2023-02-28T04:02:05;7.35;;;6.60;;
9986;SDS011;5033;46.310;11.214;2023-02-28T04:04:33;6.60;;;6.10;;
9986;SDS011;5033;46.310;11.214;2023-02-28T04:07:03;7.05;;;6.45;;
9986;SDS011;5033;46.310;11.214;2023-02-28T04:09:32;7.22;;;6.72;;
9986;SDS011;5033;46.310;11.214;2023-02-28T04:11:59;7.32;;;6.70;;
9986;SDS011;5033;46.310;11.214;2023-02-28T04:14:27;7.53;;;6.82;;
9986;SDS011;5033;46.310;11.214;2023-02-28T04:16:54;6.90;;;6.30;;
9986;SDS011;5033;46.310;11.214;2023-02-28T04:19:21;7.13;;;6.53;;
9986;SDS011;5033;46.310;11.214;2023-02-28T04:21:49;8.77;;;7.90;;
9986;SDS011;5033;46.310;11.214;2023-02-28T04:24:20;7.72;;;6.95;;
9986;SDS011;5033;46.310;11.214;2023-02-28T04:26:49;6.93;;;6.38;;
9986;SDS011;5033;46.310;11.214;2023-02-28T04:29:19;7.95;;;7.15;;
9986;SDS011;5033;46.310;11.214;2023-02-28T04:31:48;8.00;;;7.30;;
9986;SDS011;5033;46.310;11.214;2023-02-28T04:34:15;7.75;;;6.78;;
9986;SDS011;5033;46.310;11.214;2023-02-28T04:36:44;7.57;;;6.95;;
9986;SDS011;5033;46.310;11.214;2023-02-28T04:39:14;7.75;;;7.05;;
9986;SDS011;5033;46.310;11.214;2023-02-28T04:41:44;7.38;;;6.78;;
9986;SDS011;5033;46.310;11.214;2023-02-28T04:44:11;7.40;;;6.75;;
9986;SDS011;5033;46.310;11.214;2023-02-28T04:46:39;7.55;;;6.85;;
9986;SDS011;5033;46.310;11.214;2023-02-28T04:49:06;7.72;;;7.13;;
9986;SDS011;5033;46.310;11.214;2023-02-28T04:51:34;7.88;;;7.18;;
9986;SDS011;5033;46.310;11.214;2023-02-28T04:54:01;7.65;;;6.95;;
9986;SDS011;5033;46.310;11.214;2023-02-28T04:56:29;7.43;;;6.82;;
9986;SDS011;5033;46.310;11.214;2023-02-28T04:58:57;7.47;;;6.72;;
9986;SDS011;5033;46.310;11.214;2023-02-28T05:01:25;7.10;;;6.50;;
9986;SDS011;5033;46.310;11.214;2023-02-28T05:03:53;7.57;;;6.88;;
9986;SDS011;5033;46.310;11.214;2023-02-28T05:06:22;7.65;;;7.05;;
9986;SDS011;5033;46.310;11.214;2023-02-28T05:08:50;8.10;;;7.38;;
9986;SDS011;5033;46.310;11.214;2023-02-28T05:11:18;7.38;;;6.78;;
9986;SDS011;5033;46.310;11.214;2023-02-28T05:13:46;7.85;;;7.15;;
9986;SDS011;5033;46.310;11.214;2023-02-28T05:16:15;7.65;;;6.95;;
9986;SDS011;5033;46.310;11.214;2023-02-28T05:18:42;7.57;;;6.88;;
9986;SDS011;5033;46.310;11.214;2023-02-28T05:21:23;8.35;;;7.60;;
9986;SDS011;5033;46.310;11.214;2023-02-28T05:23:52;10.35;;;9.25;;
9986;SDS011;5033;46.310;11.214;2023-02-28T05:26:21;10.18;;;9.27;;
9986;SDS011;5033;46.310;11.214;2023-02-28T05:28:48;9.63;;;8.70;;
9986;SDS011;5033;46.310;11.214;2023-02-28T05:31:17;8.82;;;8.13;;
9986;SDS011;5033;46.310;11.214;2023-02-28T05:33:44;9.93;;;8.93;;
9986;SDS011;5033;46.310;11.214;2023-02-28T05:36:12;8.18;;;7.38;;
9986;SDS011;5033;46.310;11.214;2023-02-28T05:38:39;9.02;;;8.23;;
9986;SDS011;5033;46.310;11.214;2023-02-28T05:41:07;8.73;;;7.95;;
9986;SDS011;5033;46.310;11.214;2023-02-28T05:43:34;9.68;;;8.65;;
9986;SDS011;5033;46.310;11.214;2023-02-28T05:46:03;9.05;;;8.27;;
9986;SDS011;5033;46.310;11.214;2023-02-28T05:48:32;9.07;;;8.25;;
9986;SDS011;5033;46.310;11.214;2023-02-28T05:51:00;9.43;;;8.55;;
9986;SDS011;5033;46.310;11.214;2023-02-28T05:53:27;10.73;;;9.02;;
9986;SDS011;5033;46.310;11.214;2023-02-28T05:55:55;10.20;;;9.27;;
9986;SDS011;5033;46.310;11.214;2023-02-28T05:58:22;8.98;;;8.18;;
9986;SDS011;5033;46.310;11.214;2023-02-28T06:00:50;10.07;;;9.18;;
9986;SDS011;5033;46.310;11.214;2023-02-28T06:03:18;10.45;;;9.45;;
9986;SDS011;5033;46.310;11.214;2023-02-28T06:05:46;9.15;;;8.27;;
9986;SDS011;5033;46.310;11.214;2023-02-28T06:08:13;9.82;;;8.93;;
9986;SDS011;5033;46.310;11.214;2023-02-28T06:10:40;8.90;;;8.10;;
9986;SDS011;5033;46.310;11.214;2023-02-28T06:13:07;9.23;;;8.30;;
9986;SDS011;5033;46.310;11.214;2023-02-28T06:15:34;9.60;;;8.70;;
9986;SDS011;5033;46.310;11.214;2023-02-28T06:18:01;7.90;;;7.20;;
9986;SDS011;5033;46.310;11.214;2023-02-28T06:20:29;8.93;;;8.15;;
9986;SDS011;5033;46.310;11.214;2023-02-28T06:22:58;8.45;;;7.60;;
9986;SDS011;5033;46.310;11.214;2023-02-28T06:25:25;8.80;;;8.00;;
9986;SDS011;5033;46.310;11.214;2023-02-28T06:27:53;10.07;;;9.18;;
9986;SDS011;5033;46.310;11.214;2023-02-28T06:30:21;8.30;;;7.60;;
9986;SDS011;5033;46.310;11.214;2023-02-28T06:32:50;8.95;;;8.25;;
9986;SDS011;5033;46.310;11.214;2023-02-28T06:35:18;8.82;;;8.02;;
9986;SDS011;5033;46.310;11.214;2023-02-28T06:37:47;8.45;;;7.65;;
9986;SDS011;5033;46.310;11.214;2023-02-28T06:40:16;8.73;;;8.02;;
9986;SDS011;5033;46.310;11.214;2023-02-28T06:42:43;8.50;;;7.80;;
9986;SDS011;5033;46.310;11.214;2023-02-28T06:45:11;9.38;;;7.85;;
9986;SDS011;5033;46.310;11.214;2023-02-28T06:47:39;7.95;;;7.32;;
9986;SDS011;5033;46.310;11.214;2023-02-28T06:50:07;8.30;;;7.55;;
9986;SDS011;5033;46.310;11.214;2023-02-28T06:52:36;8.98;;;8.07;;
9986;SDS011;5033;46.310;11.214;2023-02-28T06:55:03;9.38;;;8.57;;
9986;SDS011;5033;46.310;11.214;2023-02-28T06:57:33;7.97;;;7.28;;
9986;SDS011;5033;46.310;11.214;2023-02-28T07:00:04;8.05;;;7.35;;
9986;SDS011;5033;46.310;11.214;2023-02-28T07:02:36;8.82;;;8.02;;
9986;SDS011;5033;46.310;11.214;2023-02-28T07:05:04;8.10;;;7.30;;
9986;SDS011;5033;46.310;11.214;2023-02-28T07:07:31;9.23;;;7.60;;
9986;SDS011;5033;46.310;11.214;2023-02-28T07:09:59;8.18;;;7.47;;
9986;SDS011;5033;46.310;11.214;2023-02-28T07:12:26;9.90;;;8.90;;
9986;SDS011;5033;46.310;11.214;2023-02-28T07:14:56;11.02;;;9.93;;
9986;SDS011;5033;46.310;11.214;2023-02-28T07:17:23;17.38;;;15.50;;
9986;SDS011;5033;46.310;11.214;2023-02-28T07:19:51;13.65;;;12.23;;
9986;SDS011;5033;46.310;11.214;2023-02-28T07:22:18;12.68;;;11.38;;
9986;SDS011;5033;46.310;11.214;2023-02-28T07:24:45;12.30;;;11.02;;
9986;SDS011;5033;46.310;11.214;2023-02-28T07:27:12;12.50;;;11.20;;
9986;SDS011;5033;46.310;11.214;2023-02-28T07:29:50;12.20;;;10.85;;
9986;SDS011;5033;46.310;11.214;2023-02-28T07:32:19;14.05;;;11.02;;
9986;SDS011;5033;46.310;11.214;2023-02-28T07:34:46;11.48;;;10.38;;
9986;SDS011;5033;46.310;11.214;2023-02-28T07:37:13;11.35;;;10.25;;
9986;SDS011;5033;46.310;11.214;2023-02-28T07:39:41;11.18;;;10.07;;
9986;SDS011;5033;46.310;11.214;2023-02-28T07:42:08;11.45;;;10.05;;
9986;SDS011;5033;46.310;11.214;2023-02-28T07:44:37;11.18;;;10.07;;
9986;SDS011;5033;46.310;11.214;2023-02-28T07:47:07;12.55;;;11.45;;
9986;SDS011;5033;46.310;11.214;2023-02-28T07:49:37;10.27;;;9.27;;
9986;SDS011;5033;46.310;11.214;2023-02-28T07:52:05;11.60;;;10.50;;
9986;SDS011;5033;46.310;11.214;2023-02-28T07:54:34;12.50;;;11.20;;
9986;SDS011;5033;46.310;11.214;2023-02-28T07:57:02;11.35;;;10.32;;
9986;SDS011;5033;46.310;11.214;2023-02-28T07:59:29;10.00;;;9.10;;
9986;SDS011;5033;46.310;11.214;2023-02-28T08:01:56;10.20;;;9.15;;
9986;SDS011;5033;46.310;11.214;2023-02-28T08:04:24;11.40;;;10.23;;
9986;SDS011;5033;46.310;11.214;2023-02-28T08:06:52;10.38;;;9.38;;
9986;SDS011;5033;46.310;11.214;2023-02-28T08:09:21;11.55;;;10.07;;
9986;SDS011;5033;46.310;11.214;2023-02-28T08:11:49;10.27;;;9.32;;
9986;SDS011;5033;46.310;11.214;2023-02-28T08:14:16;10.55;;;9.45;;
9986;SDS011;5033;46.310;11.214;2023-02-28T08:16:44;13.18;;;9.73;;
9986;SDS011;5033;46.310;11.214;2023-02-28T08:19:12;9.95;;;8.55;;
9986;SDS011;5033;46.310;11.214;2023-02-28T08:21:39;10.27;;;9.00;;
9986;SDS011;5033;46.310;11.214;2023-02-28T08:24:08;10.07;;;9.07;;
9986;SDS011;5033;46.310;11.214;2023-02-28T08:26:36;9.57;;;8.45;;
9986;SDS011;5033;46.310;11.214;2023-02-28T08:29:03;9.38;;;8.48;;
9986;SDS011;5033;46.310;11.214;2023-02-28T08:31:31;10.52;;;8.88;;
9986;SDS011;5033;46.310;11.214;2023-02-28T08:34:00;9.93;;;8.88;;
9986;SDS011;5033;46.310;11.214;2023-02-28T08:36:31;9.40;;;8.43;;
9986;SDS011;5033;46.310;11.214;2023-02-28T08:39:00;9.13;;;8.25;;
9986;SDS011;5033;46.310;11.214;2023-02-28T08:41:29;8.85;;;8.05;;
9986;SDS011;5033;46.310;11.214;2023-02-28T08:43:56;8.25;;;7.45;;
9986;SDS011;5033;46.310;11.214;2023-02-28T08:46:24;10.25;;;8.60;;
9986;SDS011;5033;46.310;11.214;2023-02-28T08:48:52;7.65;;;6.95;;
9986;SDS011;5033;46.310;11.214;2023-02-28T08:51:20;8.93;;;8.13;;
9986;SDS011;5033;46.310;11.214;2023-02-28T08:53:51;7.32;;;6.72;;
9986;SDS011;5033;46.310;11.214;2023-02-28T08:56:19;7.80;;;6.97;;
9986;SDS011;5033;46.310;11.214;2023-02-28T08:58:48;8.05;;;7.28;;
9986;SDS011;5033;46.310;11.214;2023-02-28T09:01:16;8.05;;;7.25;;
9986;SDS011;5033;46.310;11.214;2023-02-28T09:03:47;7.43;;;6.82;;
9986;SDS011;5033;46.310;11.214;2023-02-28T09:06:15;7.07;;;6.38;;
9986;SDS011;5033;46.310;11.214;2023-02-28T09:08:44;9.27;;;7.10;;
9986;SDS011;5033;46.310;11.214;2023-02-28T09:11:11;8.20;;;7.40;;
9986;SDS011;5033;46.310;11.214;2023-02-28T09:13:39;10.45;;;7.13;;
9986;SDS011;5033;46.310;11.214;2023-02-28T09:16:08;7.60;;;6.57;;
9986;SDS011;5033;46.310;11.214;2023-02-28T09:18:38;7.30;;;6.60;;
9986;SDS011;5033;46.310;11.214;2023-02-28T09:21:05;8.18;;;7.30;;
9986;SDS011;5033;46.310;11.214;2023-02-28T09:23:33;7.38;;;6.68;;
9986;SDS011;5033;46.310;11.214;2023-02-28T09:26:03;7.85;;;7.13;;
9986;SDS011;5033;46.310;11.214;2023-02-28T09:28:31;7.57;;;6.88;;
9986;SDS011;5033;46.310;11.214;2023-02-28T09:30:58;7.22;;;6.63;;
9986;SDS011;5033;46.310;11.214;2023-02-28T09:33:27;7.82;;;6.68;;
9986;SDS011;5033;46.310;11.214;2023-02-28T09:35:57;10.43;;;6.22;;
9986;SDS011;5033;46.310;11.214;2023-02-28T09:38:26;7.53;;;6.57;;
9986;SDS011;5033;46.310;11.214;2023-02-28T09:40:55;8.13;;;6.18;;
9986;SDS011;5033;46.310;11.214;2023-02-28T09:43:25;6.25;;;5.65;;
9986;SDS011;5033;46.310;11.214;2023-02-28T09:45:56;8.25;;;6.47;;
9986;SDS011;5033;46.310;11.214;2023-02-28T09:48:31;8.30;;;6.13;;
9986;SDS011;5033;46.310;11.214;2023-02-28T09:51:02;7.10;;;5.78;;
9986;SDS011;5033;46.310;11.214;2023-02-28T09:53:32;6.15;;;5.65;;
9986;SDS011;5033;46.310;11.214;2023-02-28T09:56:04;6.25;;;5.20;;
9986;SDS011;5033;46.310;11.214;2023-02-28T09:58:36;6.05;;;5.60;;
9986;SDS011;5033;46.310;11.214;2023-02-28T10:01:08;6.10;;;5.60;;
9986;SDS011;5033;46.310;11.214;2023-02-28T10:03:46;5.20;;;4.75;;
9986;SDS011;5033;46.310;11.214;2023-02-28T10:06:22;5.20;;;4.75;;
9986;SDS011;5033;46.310;11.214;2023-02-28T10:08:56;5.50;;;5.10;;
9986;SDS011;5033;46.310;11.214;2023-02-28T10:11:27;5.45;;;4.93;;
9986;SDS011;5033;46.310;11.214;2023-02-28T10:13:56;5.32;;;4.63;;
9986;SDS011;5033;46.310;11.214;2023-02-28T10:16:30;5.13;;;4.63;;
9986;SDS011;5033;46.310;11.214;2023-02-28T10:19:04;7.93;;;4.90;;
9986;SDS011;5033;46.310;11.214;2023-02-28T10:21:37;5.63;;;4.82;;
9986;SDS011;5033;46.310;11.214;2023-02-28T10:24:11;5.10;;;4.60;;
9986;SDS011;5033;46.310;11.214;2023-02-28T10:26:45;4.38;;;4.07;;
9986;SDS011;5033;46.310;11.214;2023-02-28T10:29:16;5.70;;;4.93;;
9986;SDS011;5033;46.310;11.214;2023-02-28T10:31:43;4.35;;;4.03;;
9986;SDS011;5033;46.310;11.214;2023-02-28T10:34:12;4.93;;;4.53;;
9986;SDS011;5033;46.310;11.214;2023-02-28T10:36:40;4.53;;;4.13;;
9986;SDS011;5033;46.310;11.214;2023-02-28T10:42:02;4.97;;;4.30;;
9986;SDS011;5033;46.310;11.214;2023-02-28T10:44:30;4.88;;;4.47;;
9986;SDS011;5033;46.310;11.214;2023-02-28T10:46:57;4.82;;;4.38;;
9986;SDS011;5033;46.310;11.214;2023-02-28T10:49:27;5.30;;;4.80;;
9986;SDS011;5033;46.310;11.214;2023-02-28T10:51:55;4.78;;;4.20;;
9986;SDS011;5033;46.310;11.214;2023-02-28T10:54:24;5.32;;;4.78;;
9986;SDS011;5033;46.310;11.214;2023-02-28T10:57:05;5.43;;;4.93;;
9986;SDS011;5033;46.310;11.214;2023-02-28T10:59:42;5.20;;;4.70;;
9986;SDS011;5033;46.310;11.214;2023-02-28T11:02:30;5.38;;;4.50;;
9986;SDS011;5033;46.310;11.214;2023-02-28T11:05:01;5.32;;;4.88;;
9986;SDS011;5033;46.310;11.214;2023-02-28T11:07:28;4.95;;;4.55;;
9986;SDS011;5033;46.310;11.214;2023-02-28T11:09:55;5.30;;;4.90;;
9986;SDS011;5033;46.310;11.214;2023-02-28T11:12:25;5.43;;;4.93;;
9986;SDS011;5033;46.310;11.214;2023-02-28T11:14:55;5.20;;;4.68;;
9986;SDS011;5033;46.310;11.214;2023-02-28T11:17:25;5.38;;;4.88;;
9986;SDS011;5033;46.310;11.214;2023-02-28T11:19:54;5.05;;;4.38;;
9986;SDS011;5033;46.310;11.214;2023-02-28T11:22:30;5.45;;;5.00;;
9986;SDS011;5033;46.310;11.214;2023-02-28T11:25:01;5.40;;;4.90;;
9986;SDS011;5033;46.310;11.214;2023-02-28T11:30:25;5.65;;;5.00;;
9986;SDS011;5033;46.310;11.214;2023-02-28T11:32:55;5.40;;;4.90;;
9986;SDS011;5033;46.310;11.214;2023-02-28T11:35:23;6.53;;;5.00;;
9986;SDS011;5033;46.310;11.214;2023-02-28T11:37:56;6.10;;;4.97;;
9986;SDS011;5033;46.310;11.214;2023-02-28T11:40:26;5.93;;;4.85;;
9986;SDS011;5033;46.310;11.214;2023-02-28T11:43:01;5.50;;;5.00;;
9986;SDS011;5033;46.310;11.214;2023-02-28T11:45:44;5.45;;;4.95;;
9986;SDS011;5033;46.310;11.214;2023-02-28T11:48:19;5.43;;;4.93;;
9986;SDS011;5033;46.310;11.214;2023-02-28T11:50:55;5.65;;;5.03;;
9986;SDS011;5033;46.310;11.214;2023-02-28T11:53:39;5.25;;;4.55;;
9986;SDS011;5033;46.310;11.214;2023-02-28T11:56:18;4.47;;;4.18;;
9986;SDS011;5033;46.310;11.214;2023-02-28T11:58:55;4.80;;;4.40;;
9986;SDS011;5033;46.310;11.214;2023-02-28T12:01:46;4.75;;;4.35;;
9986;SDS011;5033;46.310;11.214;2023-02-28T12:04:30;4.90;;;4.50;;
9986;SDS011;5033;46.310;11.214;2023-02-28T12:07:09;5.25;;;4.63;;
9986;SDS011;5033;46.310;11.214;2023-02-28T12:09:50;5.03;;;4.53;;
9986;SDS011;5033;46.310;11.214;2023-02-28T12:12:29;4.93;;;4.50;;
9986;SDS011;5033;46.310;11.214;2023-02-28T12:15:13;4.80;;;4.40;;
9986;SDS011;5033;46.310;11.214;2023-02-28T12:17:51;5.03;;;4.63;;
9986;SDS011;5033;46.310;11.214;2023-02-28T12:20:25;4.75;;;4.18;;
9986;SDS011;5033;46.310;11.214;2023-02-28T12:23:04;5.55;;;4.75;;
9986;SDS011;5033;46.310;11.214;2023-02-28T12:25:57;4.38;;;3.97;;
9986;SDS011;5033;46.310;11.214;2023-02-28T12:31:04;5.55;;;3.95;;
9986;SDS011;5033;46.310;11.214;2023-02-28T12:33:36;4.38;;;3.95;;
9986;SDS011;5033;46.310;11.214;2023-02-28T12:36:09;4.38;;;4.07;;
9986;SDS011;5033;46.310;11.214;2023-02-28T12:38:41;5.15;;;4.32;;
9986;SDS011;5033;46.310;11.214;2023-02-28T12:41:13;4.28;;;3.90;;
9986;SDS011;5033;46.310;11.214;2023-02-28T12:43:44;4.13;;;3.83;;
9986;SDS011;5033;46.310;11.214;2023-02-28T12:46:16;3.95;;;3.65;;
9986;SDS011;5033;46.310;11.214;2023-02-28T12:48:47;5.28;;;3.70;;
9986;SDS011;5033;46.310;11.214;2023-02-28T12:51:16;3.65;;;3.40;;
9986;SDS011;5033;46.310;11.214;2023-02-28T12:53:49;3.40;;;3.13;;
9986;SDS011;5033;46.310;11.214;2023-02-28T12:56:27;3.78;;;3.47;;
9986;SDS011;5033;46.310;11.214;2023-02-28T12:59:01;3.80;;;3.50;;
9986;SDS011;5033;46.310;11.214;2023-02-28T13:01:47;3.30;;;3.10;;
9986;SDS011;5033;46.310;11.214;2023-02-28T13:04:44;3.63;;;3.20;;
9986;SDS011;5033;46.310;11.214;2023-02-28T13:07:35;3.90;;;3.60;;
9986;SDS011;5033;46.310;11.214;2023-02-28T13:10:22;5.85;;;4.32;;
9986;SDS011;5033;46.310;11.214;2023-02-28T13:12:53;4.70;;;4.20;;
9986;SDS011;5033;46.310;11.214;2023-02-28T13:15:22;3.97;;;3.67;;
9986;SDS011;5033;46.310;11.214;2023-02-28T13:17:53;3.95;;;3.65;;
9986;SDS011;5033;46.310;11.214;2023-02-28T13:20:23;3.78;;;3.47;;
9986;SDS011;5033;46.310;11.214;2023-02-28T13:22:52;3.70;;;3.45;;
9986;SDS011;5033;46.310;11.214;2023-02-28T13:34:35;3.50;;;3.20;;
9986;SDS011;5033;46.310;11.214;2023-02-28T13:42:54;3.78;;;3.47;;
9986;SDS011;5033;46.310;11.214;2023-02-28T13:45:22;3.47;;;3.22;;
9986;SDS011;5033;46.310;11.214;2023-02-28T13:47:51;2.80;;;2.60;;
9986;SDS011;5033;46.310;11.214;2023-02-28T13:50:24;3.55;;;3.08;;
9986;SDS011;5033;46.310;11.214;2023-02-28T13:53:07;3.33;;;3.00;;
9986;SDS011;5033;46.310;11.214;2023-02-28T13:56:00;3.25;;;2.97;;
9986;SDS011;5033;46.310;11.214;2023-02-28T13:58:41;3.25;;;3.00;;
9986;SDS011;5033;46.310;11.214;2023-02-28T14:01:25;3.33;;;3.00;;
9986;SDS011;5033;46.310;11.214;2023-02-28T14:04:07;3.15;;;2.95;;
9986;SDS011;5033;46.310;11.214;2023-02-28T14:06:53;3.20;;;2.90;;
9986;SDS011;5033;46.310;11.214;2023-02-28T14:09:23;3.40;;;3.20;;
9986;SDS011;5033;46.310;11.214;2023-02-28T14:11:53;3.30;;;3.00;;
9986;SDS011;5033;46.310;11.214;2023-02-28T14:17:27;2.90;;;2.67;;
9986;SDS011;5033;46.310;11.214;2023-02-28T14:19:54;3.03;;;2.83;;
9986;SDS011;5033;46.310;11.214;2023-02-28T14:25:19;6.88;;;2.60;;
9986;SDS011;5033;46.310;11.214;2023-02-28T14:27:54;2.70;;;2.50;;
9986;SDS011;5033;46.310;11.214;2023-02-28T14:30:37;3.28;;;2.53;;
9986;SDS011;5033;46.310;11.214;2023-02-28T14:33:18;3.25;;;3.05;;
9986;SDS011;5033;46.310;11.214;2023-02-28T14:38:41;3.55;;;3.22;;
9986;SDS011;5033;46.310;11.214;2023-02-28T14:41:14;3.65;;;3.35;;
9986;SDS011;5033;46.310;11.214;2023-02-28T14:43:47;4.45;;;4.05;;
9986;SDS011;5033;46.310;11.214;2023-02-28T14:46:19;3.88;;;3.58;;
9986;SDS011;5033;46.310;11.214;2023-02-28T14:48:49;3.45;;;3.22;;
9986;SDS011;5033;46.310;11.214;2023-02-28T14:51:20;3.72;;;3.45;;
9986;SDS011;5033;46.310;11.214;2023-02-28T14:53:51;3.85;;;3.55;;
9986;SDS011;5033;46.310;11.214;2023-02-28T14:56:24;4.85;;;4.10;;
9986;SDS011;5033;46.310;11.214;2023-02-28T14:58:53;4.47;;;4.13;;
9986;SDS011;5033;46.310;11.214;2023-02-28T15:01:22;4.00;;;3.70;;
9986;SDS011;5033;46.310;11.214;2023-02-28T15:03:57;3.40;;;3.10;;
9986;SDS011;5033;46.310;11.214;2023-02-28T15:06:26;3.42;;;3.13;;
9986;SDS011;5033;46.310;11.214;2023-02-28T15:09:07;3.90;;;3.28;;
9986;SDS011;5033;46.310;11.214;2023-02-28T15:11:36;3.83;;;3.53;;
9986;SDS011;5033;46.310;11.214;2023-02-28T15:14:05;3.25;;;2.95;;
9986;SDS011;5033;46.310;11.214;2023-02-28T15:16:32;3.42;;;3.03;;
9986;SDS011;5033;46.310;11.214;2023-02-28T15:19:04;3.75;;;3.45;;
9986;SDS011;5033;46.310;11.214;2023-02-28T15:21:34;3.05;;;2.85;;
9986;SDS011;5033;46.310;11.214;2023-02-28T15:24:03;2.88;;;2.67;;
9986;SDS011;5033;46.310;11.214;2023-02-28T15:26:35;2.50;;;2.30;;
9986;SDS011;5033;46.310;11.214;2023-02-28T15:29:05;2.63;;;2.42;;
9986;SDS011;5033;46.310;11.214;2023-02-28T15:31:40;2.30;;;2.15;;
9986;SDS011;5033;46.310;11.214;2023-02-28T15:34:15;2.58;;;2.38;;
9986;SDS011;5033;46.310;11.214;2023-02-28T15:36:46;3.50;;;2.83;;
9986;SDS011;5033;46.310;11.214;2023-02-28T15:39:18;3.10;;;2.90;;
9986;SDS011;5033;46.310;11.214;2023-02-28T15:41:48;2.90;;;2.70;;
9986;SDS011;5033;46.310;11.214;2023-02-28T15:44:16;2.70;;;2.50;;
9986;SDS011;5033;46.310;11.214;2023-02-28T15:46:55;2.42;;;2.22;;
9986;SDS011;5033;46.310;11.214;2023-02-28T15:49:24;2.75;;;2.55;;
9986;SDS011;5033;46.310;11.214;2023-02-28T15:51:52;2.60;;;2.40;;
9986;SDS011;5033;46.310;11.214;2023-02-28T15:54:22;2.97;;;2.17;;
9986;SDS011;5033;46.310;11.214;2023-02-28T15:56:54;2.55;;;2.35;;
9986;SDS011;5033;46.310;11.214;2023-02-28T15:59:23;2.80;;;2.50;;
9986;SDS011;5033;46.310;11.214;2023-02-28T16:02:13;2.25;;;2.15;;
9986;SDS011;5033;46.310;11.214;2023-02-28T16:04:59;2.58;;;2.38;;